createdAt,value
2023-08-29T00:01:45.777Z,100746.33
2023-08-29T00:04:13.139Z,100748.38
2023-08-29T00:06:40.123Z,100750.05
2023-08-29T00:09:07.160Z,100753.20
2023-08-29T00:11:34.640Z,100754.05
2023-08-29T00:14:01.681Z,100757.15
2023-08-29T00:16:28.884Z,100756.80
2023-08-29T00:18:55.922Z,100761.11
2023-08-29T00:21:23.268Z,100758.02
2023-08-29T00:23:50.942Z,100756.25
2023-08-29T00:26:18.022Z,100758.40
2023-08-29T00:28:45.542Z,100753.80
2023-08-29T00:31:12.705Z,100751.02
2023-08-29T00:33:39.943Z,100749.33
2023-08-29T00:36:07.508Z,100749.73
2023-08-29T00:38:34.548Z,100753.92
2023-08-29T00:41:01.555Z,100750.39
2023-08-29T00:43:28.757Z,100748.44
2023-08-29T00:45:56.883Z,100742.96
2023-08-29T00:48:24.328Z,100746.67
2023-08-29T00:50:51.426Z,100744.59
2023-08-29T00:53:18.580Z,100746.02
2023-08-29T00:55:46.133Z,100747.98
2023-08-29T00:58:14.215Z,100746.65
2023-08-29T01:00:41.578Z,100746.98
2023-08-29T01:03:09.133Z,100747.17
2023-08-29T01:05:36.479Z,100750.08
2023-08-29T01:08:05.736Z,100749.77
2023-08-29T01:10:37.530Z,100748.84
2023-08-29T01:13:43.594Z,100751.55
2023-08-29T01:16:13.027Z,100748.59
2023-08-29T01:18:41.964Z,100751.65
2023-08-29T01:21:30.862Z,100749.26
2023-08-29T01:24:18.063Z,100746.79
2023-08-29T01:26:47.323Z,100743.87
2023-08-29T01:29:16.460Z,100742.33
2023-08-29T01:31:44.469Z,100740.02
2023-08-29T01:34:14.653Z,100738.25
2023-08-29T01:36:43.858Z,100739.48
2023-08-29T01:39:11.416Z,100738.88
2023-08-29T01:41:39.887Z,100733.81
2023-08-29T01:44:07.657Z,100739.86
2023-08-29T01:46:34.712Z,100739.33
2023-08-29T01:49:04.067Z,100738.91
2023-08-29T01:51:32.070Z,100737.46
2023-08-29T01:53:59.637Z,100736.77
2023-08-29T01:56:30.076Z,100734.55
2023-08-29T01:58:59.269Z,100736.98
2023-08-29T02:01:27.008Z,100740.05
2023-08-29T02:03:54.190Z,100740.36
2023-08-29T02:06:21.421Z,100738.73
2023-08-29T02:08:48.656Z,100740.56
2023-08-29T02:11:15.751Z,100736.70
2023-08-29T02:13:42.877Z,100740.98
2023-08-29T02:16:10.025Z,100739.54
2023-08-29T02:18:37.178Z,100739.92
2023-08-29T02:21:05.000Z,100732.10
2023-08-29T02:23:32.661Z,100733.48
2023-08-29T02:26:07.314Z,100731.67
2023-08-29T02:28:39.205Z,100732.97
2023-08-29T02:31:09.134Z,100732.11
2023-08-29T02:33:41.134Z,100729.81
2023-08-29T02:36:08.749Z,100727.29
2023-08-29T02:38:36.397Z,100731.27
2023-08-29T02:41:03.653Z,100727.79
2023-08-29T02:43:31.039Z,100730.14
2023-08-29T02:45:58.764Z,100733.27
2023-08-29T02:48:26.941Z,100731.34
2023-08-29T02:50:53.893Z,100731.83
2023-08-29T02:53:22.471Z,100725.90
2023-08-29T02:55:54.027Z,100728.90
2023-08-29T02:58:21.381Z,100723.91
2023-08-29T03:00:54.504Z,100724.50
2023-08-29T03:03:21.957Z,100722.42
2023-08-29T03:06:00.781Z,100722.23
2023-08-29T03:08:28.112Z,100723.16
2023-08-29T03:10:55.351Z,100726.45
2023-08-29T03:13:23.009Z,100723.80
2023-08-29T03:15:50.484Z,100725.86
2023-08-29T03:18:18.135Z,100727.95
2023-08-29T03:20:46.481Z,100725.65
2023-08-29T03:23:13.962Z,100721.83
2023-08-29T03:25:41.022Z,100726.68
2023-08-29T03:28:08.639Z,100729.84
2023-08-29T03:30:36.042Z,100731.41
2023-08-29T03:33:03.407Z,100734.65
2023-08-29T03:35:31.379Z,100736.73
2023-08-29T03:37:58.711Z,100735.55
2023-08-29T03:40:25.955Z,100740.05
2023-08-29T03:42:54.444Z,100740.56
2023-08-29T03:45:21.607Z,100743.37
2023-08-29T03:47:49.760Z,100751.48
2023-08-29T03:50:19.098Z,100756.59
2023-08-29T03:52:48.667Z,100755.11
2023-08-29T03:55:16.257Z,100757.49
2023-08-29T03:57:43.485Z,100756.08
2023-08-29T04:00:12.126Z,100752.64
2023-08-29T04:02:42.950Z,100754.10
2023-08-29T04:05:16.440Z,100745.63
2023-08-29T04:07:44.172Z,100744.48
2023-08-29T04:10:14.165Z,100744.67
2023-08-29T04:12:41.436Z,100748.89
2023-08-29T04:15:08.942Z,100744.60
2023-08-29T04:17:36.142Z,100742.10
2023-08-29T04:20:09.845Z,100742.64
2023-08-29T04:22:37.534Z,100743.08
2023-08-29T04:25:06.018Z,100743.77
2023-08-29T04:27:33.190Z,100747.44
2023-08-29T04:30:00.448Z,100750.90
2023-08-29T04:32:27.566Z,100751.70
2023-08-29T04:34:54.796Z,100752.14
2023-08-29T04:37:21.850Z,100751.98
2023-08-29T04:39:49.001Z,100761.31
2023-08-29T04:42:16.151Z,100761.05
2023-08-29T04:44:44.795Z,100760.73
2023-08-29T04:47:13.732Z,100763.69
2023-08-29T04:49:41.327Z,100765.45
2023-08-29T04:52:08.453Z,100765.24
2023-08-29T04:54:35.533Z,100769.28
2023-08-29T04:57:04.533Z,100768.20
2023-08-29T04:59:32.390Z,100772.25
2023-08-29T05:02:00.873Z,100766.63
2023-08-29T05:04:28.035Z,100765.17
2023-08-29T05:06:55.224Z,100760.89
2023-08-29T05:09:22.436Z,100762.98
2023-08-29T05:11:49.782Z,100753.48
2023-08-29T05:14:17.140Z,100753.00
2023-08-29T05:16:45.139Z,100755.45
2023-08-29T05:19:12.506Z,100749.63
2023-08-29T05:21:39.760Z,100752.65
2023-08-29T05:24:09.984Z,100753.19
2023-08-29T05:26:37.021Z,100755.27
2023-08-29T05:29:04.342Z,100758.13
2023-08-29T05:31:31.487Z,100749.78
2023-08-29T05:33:58.792Z,100751.73
2023-08-29T05:36:25.925Z,100750.45
2023-08-29T05:38:52.888Z,100748.04
2023-08-29T05:41:20.029Z,100746.78
2023-08-29T05:43:47.076Z,100745.45
2023-08-29T05:46:14.435Z,100745.55
2023-08-29T05:48:41.471Z,100744.52
2023-08-29T05:51:08.623Z,100743.84
2023-08-29T05:53:35.895Z,100747.38
2023-08-29T05:56:03.092Z,100744.91
2023-08-29T05:58:30.076Z,100743.38
2023-08-29T06:00:57.167Z,100741.45
2023-08-29T06:03:24.617Z,100737.45
2023-08-29T06:05:52.218Z,100742.85
2023-08-29T06:08:20.570Z,100752.04
2023-08-29T06:10:48.204Z,100756.48
2023-08-29T06:13:15.276Z,100751.86
2023-08-29T06:15:42.422Z,100751.77
2023-08-29T06:18:10.670Z,100755.65
2023-08-29T06:20:37.919Z,100753.85
2023-08-29T06:23:06.495Z,100752.48
2023-08-29T06:25:33.836Z,100760.33
2023-08-29T06:28:01.265Z,100763.90
2023-08-29T06:30:28.560Z,100771.00
2023-08-29T06:32:55.883Z,100773.08
2023-08-29T06:35:23.027Z,100771.33
2023-08-29T06:37:51.267Z,100770.11
2023-08-29T06:40:18.537Z,100776.34
2023-08-29T06:42:45.646Z,100778.02
2023-08-29T06:45:12.888Z,100773.40
2023-08-29T06:47:40.160Z,100768.34
2023-08-29T06:50:10.161Z,100770.63
2023-08-29T06:52:37.201Z,100773.85
2023-08-29T06:55:04.772Z,100770.03
2023-08-29T06:57:31.807Z,100769.45
2023-08-29T06:59:58.853Z,100776.66
2023-08-29T07:02:27.489Z,100781.79
2023-08-29T07:04:55.002Z,100785.60
2023-08-29T07:07:22.149Z,100787.92
2023-08-29T07:09:49.309Z,100794.14
2023-08-29T07:12:17.002Z,100794.23
2023-08-29T07:14:45.347Z,100795.35
2023-08-29T07:17:12.653Z,100793.20
2023-08-29T07:19:40.144Z,100793.48
2023-08-29T07:22:21.863Z,100796.15
2023-08-29T07:24:50.525Z,100801.36
2023-08-29T07:27:17.570Z,100794.73
2023-08-29T07:29:44.995Z,100793.37
2023-08-29T07:32:12.075Z,100796.13
2023-08-29T07:34:41.535Z,100792.55
2023-08-29T07:37:09.247Z,100790.69
2023-08-29T07:39:36.629Z,100794.35
2023-08-29T07:42:04.790Z,100800.60
2023-08-29T07:44:32.624Z,100808.69
2023-08-29T07:49:29.980Z,100811.41
2023-08-29T07:51:57.355Z,100807.90
2023-08-29T07:54:24.635Z,100812.45
2023-08-29T07:56:51.721Z,100817.30
2023-08-29T07:59:19.154Z,100823.04
2023-08-29T08:01:46.929Z,100820.04
2023-08-29T08:04:14.373Z,100819.18
2023-08-29T08:06:41.467Z,100818.15
2023-08-29T08:09:09.474Z,100819.53
2023-08-29T08:11:36.786Z,100816.80
2023-08-29T08:14:04.645Z,100815.28
2023-08-29T08:16:31.721Z,100820.05
2023-08-29T08:18:58.890Z,100819.45
2023-08-29T08:21:25.941Z,100815.38
2023-08-29T08:23:53.914Z,100817.09
2023-08-29T08:26:21.050Z,100819.45
2023-08-29T08:28:48.039Z,100821.17
2023-08-29T08:31:15.087Z,100818.56
2023-08-29T08:33:42.423Z,100818.11
2023-08-29T08:36:09.752Z,100821.69
2023-08-29T08:38:37.417Z,100824.25
2023-08-29T08:41:06.002Z,100827.14
2023-08-29T08:43:33.102Z,100825.95
2023-08-29T08:46:00.654Z,100829.34
2023-08-29T08:48:28.228Z,100831.62
2023-08-29T08:50:56.340Z,100834.09
2023-08-29T08:53:23.546Z,100835.34
2023-08-29T08:55:51.151Z,100839.34
2023-08-29T08:58:19.610Z,100839.61
2023-08-29T09:00:47.557Z,100835.88
2023-08-29T09:03:18.169Z,100841.86
2023-08-29T09:05:45.403Z,100840.29
2023-08-29T09:08:12.495Z,100845.34
2023-08-29T09:10:41.160Z,100852.84
2023-08-29T09:13:19.255Z,100860.39
2023-08-29T09:15:49.504Z,100852.21
2023-08-29T09:18:25.882Z,100849.39
2023-08-29T09:20:54.637Z,100844.62
2023-08-29T09:23:26.322Z,100844.77
2023-08-29T09:25:58.422Z,100846.91
2023-08-29T09:28:30.525Z,100848.30
2023-08-29T09:31:06.046Z,100854.18
2023-08-29T09:33:34.280Z,100856.85
2023-08-29T09:36:06.499Z,100854.75
2023-08-29T09:38:34.755Z,100860.05
2023-08-29T09:41:03.027Z,100857.92
2023-08-29T09:43:31.202Z,100857.09
2023-08-29T09:45:59.651Z,100856.46
2023-08-29T09:48:29.567Z,100858.98
2023-08-29T09:51:00.334Z,100862.96
2023-08-29T09:53:30.193Z,100859.17
2023-08-29T09:56:06.863Z,100862.62
2023-08-29T09:58:34.715Z,100866.55
2023-08-29T10:01:03.784Z,100867.46
2023-08-29T10:03:31.491Z,100868.51
2023-08-29T10:06:03.094Z,100870.03
2023-08-29T10:08:44.944Z,100862.71
2023-08-29T10:11:12.027Z,100863.88
2023-08-29T10:13:41.550Z,100865.17
2023-08-29T10:16:08.684Z,100872.11
2023-08-29T10:18:36.347Z,100866.80
2023-08-29T10:21:05.548Z,100863.16
2023-08-29T10:23:33.412Z,100861.39
2023-08-29T10:26:02.378Z,100858.54
2023-08-29T10:28:33.048Z,100854.35
2023-08-29T10:31:03.860Z,100851.20
2023-08-29T10:33:31.230Z,100853.57
2023-08-29T10:35:58.486Z,100852.39
2023-08-29T10:38:27.894Z,100856.30
2023-08-29T10:41:12.448Z,100861.48
2023-08-29T10:43:39.613Z,100859.73
2023-08-29T10:46:13.351Z,100861.02
2023-08-29T10:48:40.588Z,100866.92
2023-08-29T10:51:21.019Z,100864.16
2023-08-29T10:53:58.679Z,100855.62
2023-08-29T10:56:29.458Z,100855.95
2023-08-29T10:58:56.987Z,100856.76
2023-08-29T11:01:29.950Z,100856.88
2023-08-29T11:03:58.705Z,100851.73
2023-08-29T11:06:28.381Z,100853.83
2023-08-29T11:09:22.524Z,100857.32
2023-08-29T11:12:08.532Z,100846.77
2023-08-29T11:14:54.949Z,100849.21
2023-08-29T11:17:26.369Z,100845.85
2023-08-29T11:19:54.770Z,100844.33
2023-08-29T11:22:24.110Z,100846.98
2023-08-29T11:24:58.537Z,100844.16
2023-08-29T11:27:27.439Z,100847.04
2023-08-29T11:30:11.101Z,100847.12
2023-08-29T11:32:42.310Z,100844.60
2023-08-29T11:35:12.944Z,100851.66
2023-08-29T11:37:40.678Z,100849.24
2023-08-29T11:40:12.942Z,100852.45
2023-08-29T11:43:23.922Z,100854.86
2023-08-29T11:45:46.382Z,100862.31
2023-08-29T11:48:30.173Z,100858.42
2023-08-29T11:51:00.438Z,100853.53
2023-08-29T11:53:51.332Z,100853.77
2023-08-29T11:56:18.560Z,100842.84
2023-08-29T11:58:45.941Z,100837.26
2023-08-29T12:01:13.133Z,100838.29
2023-08-29T12:03:40.772Z,100834.39
2023-08-29T12:06:12.627Z,100837.09
2023-08-29T12:08:47.056Z,100826.59
2023-08-29T12:11:17.177Z,100830.50
2023-08-29T12:14:02.907Z,100830.51
2023-08-29T12:16:32.499Z,100826.66
2023-08-29T12:19:13.825Z,100825.69
2023-08-29T12:21:40.886Z,100824.14
2023-08-29T12:24:15.957Z,100821.27
2023-08-29T12:26:43.164Z,100824.42
2023-08-29T12:29:10.741Z,100823.70
2023-08-29T12:31:38.823Z,100830.21
2023-08-29T12:34:06.052Z,100835.30
2023-08-29T12:36:33.117Z,100835.86
2023-08-29T12:39:00.309Z,100839.84
2023-08-29T12:41:27.429Z,100841.20
2023-08-29T12:43:57.107Z,100840.94
2023-08-29T12:46:24.140Z,100832.84
2023-08-29T12:48:51.163Z,100832.05
2023-08-29T12:51:18.452Z,100827.83
2023-08-29T12:53:45.604Z,100824.10
2023-08-29T12:56:13.773Z,100819.34
2023-08-29T12:58:40.819Z,100809.75
2023-08-29T13:01:08.067Z,100810.30
2023-08-29T13:03:35.814Z,100808.05
2023-08-29T13:06:02.992Z,100809.00
2023-08-29T13:08:30.263Z,100803.42
2023-08-29T13:10:57.388Z,100799.38
2023-08-29T13:13:24.354Z,100800.08
2023-08-29T13:15:51.998Z,100799.66
2023-08-29T13:18:20.003Z,100801.49
2023-08-29T13:20:47.426Z,100797.64
2023-08-29T13:23:14.453Z,100798.33
2023-08-29T13:25:41.523Z,100795.92
2023-08-29T13:28:08.928Z,100794.54
2023-08-29T13:30:37.218Z,100796.73
2023-08-29T13:33:05.215Z,100797.65
2023-08-29T13:35:32.174Z,100797.39
2023-08-29T13:37:59.321Z,100794.81
2023-08-29T13:40:26.368Z,100789.02
2023-08-29T13:42:53.801Z,100781.07
2023-08-29T13:45:21.254Z,100783.02
2023-08-29T13:47:48.866Z,100776.74
2023-08-29T13:50:16.284Z,100771.31
2023-08-29T13:52:43.474Z,100768.73
2023-08-29T13:55:10.826Z,100769.58
2023-08-29T13:57:38.386Z,100770.75
2023-08-29T14:00:06.727Z,100775.41
2023-08-29T14:02:40.852Z,100776.52
2023-08-29T14:05:08.545Z,100778.93
2023-08-29T14:07:35.661Z,100779.02
2023-08-29T14:10:02.637Z,100782.13
2023-08-29T14:12:29.719Z,100781.98
2023-08-29T14:14:56.623Z,100781.46
2023-08-29T14:17:23.644Z,100783.89
2023-08-29T14:19:50.658Z,100783.26
2023-08-29T14:22:17.744Z,100771.29
2023-08-29T14:24:44.890Z,100764.66
2023-08-29T14:27:12.037Z,100765.92
2023-08-29T14:29:39.094Z,100764.90
2023-08-29T14:32:07.712Z,100762.83
2023-08-29T14:34:34.934Z,100759.42
2023-08-29T14:37:02.691Z,100760.14
2023-08-29T14:39:29.685Z,100759.21
2023-08-29T14:41:56.911Z,100760.81
2023-08-29T14:44:24.262Z,100762.12
2023-08-29T14:46:51.605Z,100771.89
2023-08-29T14:49:18.652Z,100764.60
2023-08-29T14:51:46.407Z,100768.27
2023-08-29T14:54:13.377Z,100767.38
2023-08-29T14:56:40.444Z,100773.02
2023-08-29T14:59:07.498Z,100766.88
2023-08-29T15:01:38.028Z,100774.22
2023-08-29T15:04:06.681Z,100774.58
2023-08-29T15:06:34.629Z,100771.70
2023-08-29T15:09:02.085Z,100771.80
2023-08-29T15:11:29.128Z,100773.79
2023-08-29T15:13:56.293Z,100775.23
2023-08-29T15:16:23.410Z,100771.45
2023-08-29T15:18:50.580Z,100773.44
2023-08-29T15:21:19.659Z,100775.11
2023-08-29T15:23:47.728Z,100784.85
2023-08-29T15:26:14.736Z,100784.77
2023-08-29T15:28:42.016Z,100788.67
2023-08-29T15:31:09.066Z,100786.80
2023-08-29T15:33:36.047Z,100784.83
2023-08-29T15:36:03.094Z,100789.23
2023-08-29T15:38:30.854Z,100793.20
2023-08-29T15:40:58.193Z,100793.09
2023-08-29T15:43:26.126Z,100793.58
2023-08-29T15:45:53.579Z,100796.83
2023-08-29T15:48:20.899Z,100791.28
2023-08-29T15:50:48.407Z,100794.27
2023-08-29T15:53:16.475Z,100791.88
2023-08-29T15:55:47.468Z,100782.01
2023-08-29T15:58:15.942Z,100776.11
2023-08-29T16:00:43.022Z,100779.77
2023-08-29T16:03:10.228Z,100778.38
2023-08-29T16:05:37.435Z,100775.05
2023-08-29T16:08:05.360Z,100779.13
2023-08-29T16:10:32.683Z,100779.20
2023-08-29T16:12:59.989Z,100779.91
2023-08-29T16:15:27.038Z,100778.36
2023-08-29T16:17:54.131Z,100780.44
2023-08-29T16:20:22.555Z,100778.41
2023-08-29T16:22:49.676Z,100773.93
2023-08-29T16:25:16.631Z,100772.55
2023-08-29T16:27:43.902Z,100764.88
2023-08-29T16:30:12.960Z,100764.44
2023-08-29T16:32:43.748Z,100767.95
2023-08-29T16:35:10.886Z,100770.08
2023-08-29T16:37:38.752Z,100767.52
2023-08-29T16:40:10.192Z,100768.42
2023-08-29T16:42:37.444Z,100767.02
2023-08-29T16:45:06.480Z,100766.16
2023-08-29T16:47:34.840Z,100761.89
2023-08-29T16:50:02.148Z,100757.61
2023-08-29T16:52:29.334Z,100758.18
2023-08-29T16:54:56.768Z,100752.02
2023-08-29T16:57:24.472Z,100749.77
2023-08-29T16:59:59.567Z,100747.73
2023-08-29T17:02:27.501Z,100748.42
2023-08-29T17:04:56.091Z,100750.44
2023-08-29T17:07:23.496Z,100749.91
2023-08-29T17:09:50.625Z,100749.77
2023-08-29T17:12:19.432Z,100748.20
2023-08-29T17:14:47.279Z,100743.84
2023-08-29T17:17:14.389Z,100747.34
2023-08-29T17:19:42.871Z,100748.61
2023-08-29T17:22:10.774Z,100750.03
2023-08-29T17:24:38.739Z,100748.92
2023-08-29T17:27:07.042Z,100754.80
2023-08-29T17:29:34.174Z,100750.34
2023-08-29T17:32:01.353Z,100745.84
2023-08-29T17:34:28.793Z,100750.89
2023-08-29T17:36:59.102Z,100751.27
2023-08-29T17:39:26.462Z,100754.48
2023-08-29T17:41:53.607Z,100753.88
2023-08-29T17:44:22.500Z,100760.23
2023-08-29T17:46:49.848Z,100761.64
2023-08-29T17:49:18.741Z,100761.08
2023-08-29T17:51:46.344Z,100759.38
2023-08-29T17:54:13.665Z,100759.77
2023-08-29T17:56:40.809Z,100757.02
2023-08-29T17:59:07.826Z,100757.60
2023-08-29T18:01:35.310Z,100757.07
2023-08-29T18:04:02.460Z,100757.60
2023-08-29T18:06:30.408Z,100757.89
2023-08-29T18:08:57.488Z,100765.92
2023-08-29T18:11:24.410Z,100763.03
2023-08-29T18:13:51.476Z,100766.11
2023-08-29T18:16:18.552Z,100769.49
2023-08-29T18:18:46.298Z,100771.58
2023-08-29T18:21:13.642Z,100777.34
2023-08-29T18:23:41.265Z,100785.88
2023-08-29T18:26:10.502Z,100785.66
2023-08-29T18:28:39.801Z,100784.27
2023-08-29T18:31:07.486Z,100784.58
2023-08-29T18:33:35.323Z,100780.08
2023-08-29T18:36:02.777Z,100782.31
2023-08-29T18:38:29.818Z,100779.02
2023-08-29T18:40:57.277Z,100774.65
2023-08-29T18:43:24.269Z,100772.30
2023-08-29T18:45:51.908Z,100769.92
2023-08-29T18:48:20.744Z,100774.19
2023-08-29T18:50:48.134Z,100779.41
2023-08-29T18:53:15.592Z,100781.55
2023-08-29T18:55:43.430Z,100784.02
2023-08-29T18:58:11.060Z,100787.27
2023-08-29T19:00:39.289Z,100784.52
2023-08-29T19:03:07.528Z,100788.12
2023-08-29T19:05:36.898Z,100789.51
2023-08-29T19:08:04.658Z,100788.80
2023-08-29T19:10:31.888Z,100794.50
2023-08-29T19:12:58.938Z,100795.02
2023-08-29T19:15:26.303Z,100802.63
2023-08-29T19:17:54.032Z,100809.39
2023-08-29T19:20:21.977Z,100816.23
2023-08-29T19:22:49.081Z,100817.98
2023-08-29T19:25:18.172Z,100821.27
2023-08-29T19:27:45.206Z,100822.38
2023-08-29T19:30:12.660Z,100824.41
2023-08-29T19:32:40.169Z,100831.82
2023-08-29T19:35:07.863Z,100830.15
2023-08-29T19:37:35.056Z,100833.91
2023-08-29T19:40:02.207Z,100839.62
2023-08-29T19:42:29.258Z,100840.89
2023-08-29T19:44:56.300Z,100848.14
2023-08-29T19:47:26.636Z,100850.13
2023-08-29T19:49:53.596Z,100845.23
2023-08-29T19:52:21.056Z,100843.81
2023-08-29T19:54:48.312Z,100846.61
2023-08-29T19:57:16.028Z,100848.64
2023-08-29T19:59:43.088Z,100851.92
2023-08-29T20:02:10.796Z,100853.69
2023-08-29T20:04:37.994Z,100856.73
2023-08-29T20:07:05.683Z,100860.88
2023-08-29T20:09:33.012Z,100862.14
2023-08-29T20:12:00.256Z,100865.11
2023-08-29T20:14:30.503Z,100873.27
2023-08-29T20:17:04.270Z,100877.91
2023-08-29T20:19:33.091Z,100874.35
2023-08-29T20:22:00.410Z,100879.81
2023-08-29T20:24:27.434Z,100877.93
2023-08-29T20:26:54.641Z,100877.76
2023-08-29T20:29:22.624Z,100869.27
2023-08-29T20:31:49.592Z,100863.27
2023-08-29T20:34:17.005Z,100867.17
2023-08-29T20:36:44.422Z,100864.38
2023-08-29T20:39:11.884Z,100868.48
2023-08-29T20:41:38.962Z,100861.67
2023-08-29T20:44:06.308Z,100858.67
2023-08-29T20:46:33.477Z,100859.81
2023-08-29T20:49:00.717Z,100861.48
2023-08-29T20:51:28.689Z,100857.13
2023-08-29T20:53:56.658Z,100856.91
2023-08-29T20:56:23.698Z,100852.73
2023-08-29T20:58:50.698Z,100849.13
2023-08-29T21:01:17.862Z,100848.52
2023-08-29T21:03:45.038Z,100846.53
2023-08-29T21:06:12.364Z,100842.75
2023-08-29T21:08:39.444Z,100842.94
2023-08-29T21:11:06.438Z,100845.01
2023-08-29T21:13:33.685Z,100842.04
2023-08-29T21:16:00.726Z,100840.10
2023-08-29T21:18:27.753Z,100839.31
2023-08-29T21:20:58.899Z,100838.30
2023-08-29T21:23:26.369Z,100838.34
2023-08-29T21:25:54.492Z,100837.30
2023-08-29T21:28:26.697Z,100837.80
2023-08-29T21:30:54.699Z,100834.70
2023-08-29T21:33:23.199Z,100835.23
2023-08-29T21:35:51.516Z,100836.83
2023-08-29T21:38:18.515Z,100838.28
2023-08-29T21:40:47.528Z,100834.59
2023-08-29T21:43:22.562Z,100840.92
2023-08-29T21:45:56.063Z,100839.88
2023-08-29T21:48:25.743Z,100837.63
2023-08-29T21:50:53.588Z,100839.62
2023-08-29T21:53:20.666Z,100841.02
2023-08-29T21:55:47.923Z,100835.70
2023-08-29T21:58:20.391Z,100839.35
2023-08-29T22:00:54.680Z,100841.30
2023-08-29T22:03:25.620Z,100841.49
2023-08-29T22:05:53.572Z,100843.98
2023-08-29T22:08:22.099Z,100841.33
2023-08-29T22:10:49.812Z,100841.10
2023-08-29T22:13:16.786Z,100840.89
2023-08-29T22:15:43.917Z,100835.91
2023-08-29T22:18:11.949Z,100838.17
2023-08-29T22:20:39.629Z,100839.30
2023-08-29T22:23:06.787Z,100838.71
2023-08-29T22:25:33.974Z,100835.35
2023-08-29T22:28:00.998Z,100833.92
2023-08-29T22:30:28.487Z,100837.64
2023-08-29T22:32:56.049Z,100830.71
2023-08-29T22:35:23.173Z,100834.37
2023-08-29T22:37:50.325Z,100833.53
2023-08-29T22:40:18.087Z,100831.71
2023-08-29T22:42:45.905Z,100837.49
2023-08-29T22:45:14.788Z,100838.98
2023-08-29T22:47:42.640Z,100841.40
2023-08-29T22:50:10.040Z,100840.55
2023-08-29T22:52:40.117Z,100839.98
2023-08-29T22:55:08.038Z,100841.14
2023-08-29T22:57:36.428Z,100842.30
2023-08-29T23:00:04.324Z,100840.36
2023-08-29T23:02:31.652Z,100845.50
2023-08-29T23:04:58.821Z,100846.17
2023-08-29T23:07:25.932Z,100848.05
2023-08-29T23:09:53.071Z,100845.77
2023-08-29T23:12:20.498Z,100844.96
2023-08-29T23:14:47.690Z,100845.88
2023-08-29T23:17:14.735Z,100846.20
2023-08-29T23:19:45.576Z,100846.51
2023-08-29T23:22:12.820Z,100844.84
2023-08-29T23:24:40.014Z,100841.25
2023-08-29T23:27:07.462Z,100837.59
2023-08-29T23:29:34.662Z,100836.31
2023-08-29T23:32:01.601Z,100836.98
2023-08-29T23:34:28.639Z,100837.23
2023-08-29T23:36:55.614Z,100835.67
2023-08-29T23:39:22.659Z,100836.28
2023-08-29T23:41:49.702Z,100830.86
2023-08-29T23:44:16.690Z,100830.10
2023-08-29T23:46:43.828Z,100829.15
2023-08-29T23:49:10.908Z,100831.40
2023-08-29T23:51:37.921Z,100829.32
2023-08-29T23:54:05.156Z,100823.77
2023-08-29T23:56:32.201Z,100824.30
2023-08-29T23:58:59.242Z,100825.31
